createdAt,value
2017-07-14T00:01:43.614Z,90.40
2017-07-14T00:04:11.873Z,90.30
2017-07-14T00:06:40.178Z,90.40
2017-07-14T00:09:08.453Z,91.00
2017-07-14T00:11:36.763Z,90.60
2017-07-14T00:14:05.939Z,91.80
2017-07-14T00:16:34.181Z,91.70
2017-07-14T00:19:02.497Z,91.20
2017-07-14T00:21:30.779Z,91.00
2017-07-14T00:23:59.149Z,91.10
2017-07-14T00:26:27.410Z,91.40
2017-07-14T00:28:55.814Z,92.60
2017-07-14T00:31:24.057Z,94.80
2017-07-14T00:33:52.303Z,94.20
2017-07-14T00:36:20.739Z,92.90
2017-07-14T00:38:49.013Z,92.00
2017-07-14T00:41:17.396Z,91.70
2017-07-14T00:43:45.668Z,91.30
2017-07-14T00:46:14.035Z,91.30
2017-07-14T00:48:42.319Z,94.20
2017-07-14T00:51:10.580Z,96.70
2017-07-14T00:53:38.882Z,97.50
2017-07-14T00:56:07.129Z,97.60
2017-07-14T00:58:35.442Z,97.60
2017-07-14T01:01:03.695Z,94.60
2017-07-14T01:03:32.091Z,96.30
2017-07-14T01:06:00.361Z,97.10
2017-07-14T01:08:28.646Z,97.50
2017-07-14T01:10:57.022Z,98.00
2017-07-14T01:13:25.288Z,96.80
2017-07-14T01:15:53.594Z,96.00
2017-07-14T01:18:21.853Z,94.30
2017-07-14T01:20:50.138Z,94.10
2017-07-14T01:23:18.433Z,95.70
2017-07-14T01:25:47.516Z,93.60
2017-07-14T01:28:15.761Z,93.60
2017-07-14T01:30:44.057Z,93.20
2017-07-14T01:33:12.309Z,93.10
2017-07-14T01:35:40.685Z,97.80
2017-07-14T01:38:08.983Z,97.50
2017-07-14T01:40:37.269Z,95.40
2017-07-14T01:43:05.627Z,96.20
2017-07-14T01:45:33.893Z,93.40
2017-07-14T01:48:02.175Z,96.20
2017-07-14T01:50:30.484Z,95.80
2017-07-14T01:52:58.758Z,98.90
2017-07-14T01:55:27.023Z,99.60
2017-07-14T01:57:55.297Z,98.10
2017-07-14T02:00:23.701Z,98.60
2017-07-14T02:02:52.069Z,99.00
2017-07-14T02:05:20.332Z,99.90
2017-07-14T02:07:48.708Z,99.90
2017-07-14T02:10:17.002Z,99.60
2017-07-14T02:12:45.363Z,99.90
2017-07-14T02:15:13.635Z,99.90
2017-07-14T02:17:42.023Z,99.80
2017-07-14T02:20:10.275Z,99.90
2017-07-14T02:22:38.553Z,99.90
2017-07-14T02:25:06.819Z,99.90
2017-07-14T02:27:35.131Z,99.90
2017-07-14T02:30:03.505Z,99.90
2017-07-14T02:32:31.764Z,99.90
2017-07-14T02:35:00.269Z,99.90
2017-07-14T02:37:28.511Z,99.90
2017-07-14T02:39:56.764Z,99.90
2017-07-14T02:42:25.136Z,99.90
2017-07-14T02:44:53.391Z,99.90
2017-07-14T02:47:21.765Z,97.50
2017-07-14T02:49:50.032Z,99.90
2017-07-14T02:52:18.291Z,98.60
2017-07-14T02:54:47.353Z,99.00
2017-07-14T02:57:15.608Z,99.30
2017-07-14T02:59:44.018Z,95.00
2017-07-14T03:02:12.262Z,94.40
2017-07-14T03:04:40.568Z,94.40
2017-07-14T03:07:08.954Z,93.40
2017-07-14T03:09:37.216Z,93.60
2017-07-14T03:12:05.591Z,97.50
2017-07-14T03:14:33.851Z,94.50
2017-07-14T03:17:02.159Z,93.40
2017-07-14T03:19:30.540Z,99.00
2017-07-14T03:21:58.837Z,99.90
2017-07-14T03:24:27.208Z,99.90
2017-07-14T03:26:55.473Z,99.90
2017-07-14T03:29:23.730Z,99.90
2017-07-14T03:31:52.022Z,99.90
2017-07-14T03:34:35.157Z,99.90
2017-07-14T03:37:03.420Z,99.90
2017-07-14T03:39:31.706Z,99.90
2017-07-14T03:42:00.072Z,97.80
2017-07-14T03:44:28.357Z,97.10
2017-07-14T03:46:56.609Z,99.90
2017-07-14T03:49:24.898Z,99.60
2017-07-14T03:51:53.186Z,99.90
2017-07-14T03:54:21.488Z,98.30
2017-07-14T03:56:49.864Z,96.90
2017-07-14T03:59:18.139Z,97.00
2017-07-14T04:01:46.466Z,95.40
2017-07-14T04:04:14.780Z,97.20
2017-07-14T04:06:43.164Z,96.20
2017-07-14T04:09:11.424Z,98.70
2017-07-14T04:11:39.715Z,99.60
2017-07-14T04:14:07.965Z,99.90
2017-07-14T04:16:36.272Z,99.90
2017-07-14T04:19:04.515Z,99.90
2017-07-14T04:21:32.826Z,99.90
2017-07-14T04:24:01.082Z,99.90
2017-07-14T04:26:29.478Z,99.80
2017-07-14T04:28:57.756Z,99.90
2017-07-14T04:31:26.870Z,99.90
2017-07-14T04:33:55.190Z,99.90
2017-07-14T04:36:23.510Z,99.90
2017-07-14T04:38:51.877Z,98.70
2017-07-14T04:41:20.396Z,94.20
2017-07-14T04:43:49.451Z,94.00
2017-07-14T04:46:17.741Z,94.10
2017-07-14T04:48:46.003Z,99.30
2017-07-14T04:51:14.377Z,97.30
2017-07-14T04:53:42.633Z,95.90
2017-07-14T04:56:10.959Z,94.80
2017-07-14T04:58:39.312Z,95.30
2017-07-14T05:01:07.573Z,96.30
2017-07-14T05:03:35.874Z,95.40
2017-07-14T05:06:04.118Z,97.00
2017-07-14T05:08:32.390Z,95.50
2017-07-14T05:11:00.690Z,94.60
2017-07-14T05:13:28.983Z,92.70
2017-07-14T05:15:57.348Z,92.60
2017-07-14T05:18:25.609Z,92.40
2017-07-14T05:20:53.909Z,93.40
2017-07-14T05:23:22.171Z,94.80
2017-07-14T05:25:50.469Z,94.50
2017-07-14T05:28:19.066Z,93.40
2017-07-14T05:30:47.437Z,93.50
2017-07-14T05:33:15.696Z,94.80
2017-07-14T05:35:44.115Z,94.70
2017-07-14T05:38:12.364Z,94.20
2017-07-14T05:40:40.792Z,95.50
2017-07-14T05:43:09.124Z,95.20
2017-07-14T05:45:37.438Z,94.80
2017-07-14T05:48:06.497Z,93.90
2017-07-14T05:50:34.757Z,93.80
2017-07-14T05:53:03.053Z,94.00
2017-07-14T05:55:31.365Z,94.00
2017-07-14T05:58:00.476Z,91.50
2017-07-14T06:00:28.791Z,91.60
2017-07-14T06:02:57.181Z,93.90
2017-07-14T06:05:25.454Z,93.30
2017-07-14T06:07:53.709Z,94.90
2017-07-14T06:10:21.981Z,91.00
2017-07-14T06:12:50.245Z,91.00
2017-07-14T06:15:18.542Z,91.70
2017-07-14T06:17:46.840Z,90.60
2017-07-14T06:20:15.234Z,86.90
2017-07-14T06:22:43.607Z,89.20
2017-07-14T06:25:11.986Z,91.70
2017-07-14T06:27:40.254Z,88.60
2017-07-14T06:30:08.541Z,84.30
2017-07-14T06:32:36.924Z,83.00
2017-07-14T06:35:05.168Z,83.30
2017-07-14T06:37:33.469Z,86.60
2017-07-14T06:40:01.749Z,88.20
2017-07-14T06:42:30.030Z,87.60
2017-07-14T06:44:58.410Z,86.00
2017-07-14T06:47:26.664Z,85.40
2017-07-14T06:49:54.974Z,82.20
2017-07-14T06:52:23.989Z,79.80
2017-07-14T06:54:52.317Z,79.90
2017-07-14T06:57:20.701Z,77.60
2017-07-14T06:59:48.970Z,76.20
2017-07-14T07:02:17.256Z,76.60
2017-07-14T07:04:45.518Z,75.00
2017-07-14T07:07:13.775Z,74.30
2017-07-14T07:09:42.069Z,75.10
2017-07-14T07:12:10.334Z,73.80
2017-07-14T07:14:38.624Z,76.60
2017-07-14T07:17:06.899Z,74.00
2017-07-14T07:19:35.267Z,66.50
2017-07-14T07:22:03.538Z,70.10
2017-07-14T07:24:31.810Z,70.40
2017-07-14T07:27:00.093Z,68.40
2017-07-14T07:29:28.341Z,70.40
2017-07-14T07:31:56.735Z,68.80
2017-07-14T07:34:25.050Z,66.60
2017-07-14T07:36:53.328Z,62.90
2017-07-14T07:39:21.599Z,65.20
2017-07-14T07:41:49.843Z,65.90
2017-07-14T07:44:18.143Z,65.40
2017-07-14T07:46:52.055Z,64.40
2017-07-14T07:49:25.186Z,65.50
2017-07-14T07:51:54.228Z,64.40
2017-07-14T07:54:22.518Z,64.20
2017-07-14T07:56:50.820Z,62.20
2017-07-14T07:59:19.064Z,61.30
2017-07-14T08:01:47.467Z,63.50
2017-07-14T08:04:15.749Z,66.20
2017-07-14T08:06:43.997Z,62.70
2017-07-14T08:09:12.284Z,64.80
2017-07-14T08:11:40.550Z,64.30
2017-07-14T08:14:08.830Z,64.80
2017-07-14T08:16:37.124Z,64.10
2017-07-14T08:19:05.392Z,61.20
2017-07-14T08:21:33.664Z,60.00
2017-07-14T08:24:01.946Z,60.60
2017-07-14T08:26:30.241Z,59.70
2017-07-14T08:28:58.537Z,62.40
2017-07-14T08:31:27.597Z,58.10
2017-07-14T08:33:55.863Z,57.90
2017-07-14T08:36:24.175Z,59.10
2017-07-14T08:38:52.439Z,63.60
2017-07-14T08:41:20.721Z,59.00
2017-07-14T08:43:49.091Z,59.50
2017-07-14T08:46:17.369Z,61.70
2017-07-14T08:48:45.706Z,60.00
2017-07-14T08:51:13.960Z,61.40
2017-07-14T08:53:43.115Z,59.70
2017-07-14T08:56:11.396Z,59.80
2017-07-14T08:58:39.674Z,59.20
2017-07-14T09:01:08.091Z,57.70
2017-07-14T09:03:37.106Z,59.60
2017-07-14T09:06:05.415Z,59.20
2017-07-14T09:08:33.711Z,58.40
2017-07-14T09:11:01.976Z,59.80
2017-07-14T09:13:30.264Z,59.70
2017-07-14T09:15:58.529Z,61.00
2017-07-14T09:18:26.895Z,61.50
2017-07-14T09:20:55.190Z,60.00
2017-07-14T09:23:23.575Z,59.50
2017-07-14T09:25:51.841Z,61.20
2017-07-14T09:28:20.095Z,60.30
2017-07-14T09:30:48.397Z,58.80
2017-07-14T09:33:16.682Z,59.90
2017-07-14T09:35:45.080Z,59.60
2017-07-14T09:38:13.339Z,59.60
2017-07-14T09:40:41.719Z,58.70
2017-07-14T09:45:41.658Z,59.60
2017-07-14T09:48:09.924Z,57.00
2017-07-14T09:50:38.336Z,55.60
2017-07-14T09:53:06.690Z,56.90
2017-07-14T09:55:34.954Z,58.40
2017-07-14T09:58:03.237Z,58.20
2017-07-14T10:00:31.505Z,58.20
2017-07-14T10:02:59.907Z,59.10
2017-07-14T10:05:28.172Z,61.40
2017-07-14T10:07:56.691Z,58.40
2017-07-14T10:10:25.717Z,58.60
2017-07-14T10:12:53.999Z,58.60
2017-07-14T10:15:22.293Z,59.40
2017-07-14T10:17:50.560Z,59.10
2017-07-14T10:20:18.858Z,61.80
2017-07-14T10:22:47.129Z,61.40
2017-07-14T10:25:15.400Z,61.80
2017-07-14T10:27:43.772Z,58.30
2017-07-14T10:30:12.043Z,60.20
2017-07-14T10:32:40.321Z,61.30
2017-07-14T10:35:08.590Z,60.70
2017-07-14T10:37:36.851Z,57.70
2017-07-14T10:40:05.206Z,58.50
2017-07-14T10:42:34.257Z,57.10
2017-07-14T10:45:02.542Z,57.00
2017-07-14T10:47:31.031Z,57.10
2017-07-14T10:49:59.301Z,56.50
2017-07-14T10:52:27.779Z,57.30
2017-07-14T10:54:56.066Z,57.00
2017-07-14T10:57:24.342Z,56.70
2017-07-14T10:59:52.820Z,59.20
2017-07-14T11:02:21.065Z,55.90
2017-07-14T11:04:49.367Z,55.90
2017-07-14T11:07:17.620Z,57.80
2017-07-14T11:09:46.032Z,59.00
2017-07-14T11:12:14.277Z,59.40
2017-07-14T11:14:42.578Z,55.00
2017-07-14T11:17:10.851Z,56.00
2017-07-14T11:19:39.120Z,56.70
2017-07-14T11:22:07.397Z,58.20
2017-07-14T11:24:35.708Z,56.70
2017-07-14T11:27:04.014Z,56.20
2017-07-14T11:29:33.052Z,55.80
2017-07-14T11:32:01.308Z,55.80
2017-07-14T11:34:29.620Z,57.50
2017-07-14T11:36:57.889Z,57.70
2017-07-14T11:39:26.174Z,56.60
2017-07-14T11:41:54.451Z,57.20
2017-07-14T11:44:22.741Z,54.90
2017-07-14T11:46:51.103Z,56.80
2017-07-14T11:49:19.408Z,56.30
2017-07-14T11:51:47.665Z,58.80
2017-07-14T11:54:16.041Z,53.40
2017-07-14T11:56:45.137Z,55.30
2017-07-14T11:59:13.413Z,55.30
2017-07-14T12:01:41.810Z,54.10
2017-07-14T12:04:10.175Z,54.00
2017-07-14T12:06:38.656Z,53.90
2017-07-14T12:09:06.935Z,51.40
2017-07-14T12:11:35.310Z,53.40
2017-07-14T12:14:03.590Z,52.60
2017-07-14T12:16:32.425Z,55.90
2017-07-14T12:19:00.713Z,52.60
2017-07-14T12:21:29.012Z,46.60
2017-07-14T12:23:57.413Z,40.80
2017-07-14T12:26:25.692Z,36.20
2017-07-14T12:28:54.283Z,32.00
2017-07-14T12:31:22.555Z,28.80
2017-07-14T12:33:50.855Z,29.10
2017-07-14T12:36:19.927Z,29.80
2017-07-14T12:38:48.209Z,30.00
2017-07-14T12:41:16.529Z,32.30
2017-07-14T12:43:44.864Z,32.40
2017-07-14T12:46:13.235Z,34.10
2017-07-14T12:48:41.540Z,36.00
2017-07-14T12:51:09.884Z,36.80
2017-07-14T12:53:38.170Z,33.10
2017-07-14T12:56:06.425Z,34.50
2017-07-14T12:58:34.720Z,34.30
2017-07-14T13:01:02.981Z,33.50
2017-07-14T13:03:31.278Z,35.30
2017-07-14T13:05:59.555Z,36.30
2017-07-14T13:08:27.932Z,37.10
2017-07-14T13:10:56.209Z,39.30
2017-07-14T13:13:24.472Z,40.20
2017-07-14T13:15:52.758Z,44.50
2017-07-14T13:18:21.022Z,43.40
2017-07-14T13:20:49.303Z,43.10
2017-07-14T13:23:17.592Z,43.30
2017-07-14T13:25:45.907Z,45.60
2017-07-14T13:28:14.935Z,49.40
2017-07-14T13:30:43.232Z,49.30
2017-07-14T13:33:11.506Z,48.30
2017-07-14T13:35:39.774Z,46.30
2017-07-14T13:38:08.091Z,46.60
2017-07-14T13:40:36.352Z,48.60
2017-07-14T13:43:04.815Z,50.80
2017-07-14T13:45:33.094Z,47.50
2017-07-14T13:48:01.385Z,48.90
2017-07-14T13:50:29.663Z,45.00
2017-07-14T13:52:57.936Z,47.60
2017-07-14T13:55:26.260Z,45.80
2017-07-14T13:57:55.323Z,51.60
2017-07-14T14:00:23.594Z,50.90
2017-07-14T14:02:51.861Z,45.60
2017-07-14T14:05:20.242Z,42.40
2017-07-14T14:07:48.500Z,42.80
2017-07-14T14:10:16.798Z,36.60
2017-07-14T14:12:45.039Z,40.90
2017-07-14T14:15:13.457Z,39.70
2017-07-14T14:17:41.720Z,38.60
2017-07-14T14:20:09.985Z,39.20
2017-07-14T14:22:38.279Z,40.80
2017-07-14T14:25:06.537Z,40.70
2017-07-14T14:27:34.810Z,39.50
2017-07-14T14:30:03.099Z,41.60
2017-07-14T14:32:31.391Z,38.40
2017-07-14T14:34:59.662Z,35.00
2017-07-14T14:37:27.921Z,35.10
2017-07-14T14:39:56.195Z,37.10
2017-07-14T14:42:24.454Z,37.60
2017-07-14T14:44:52.758Z,42.30
2017-07-14T14:47:21.034Z,40.70
2017-07-14T14:49:49.423Z,42.30
2017-07-14T14:52:17.726Z,43.40
2017-07-14T14:54:45.993Z,42.10
2017-07-14T14:57:14.375Z,42.10
2017-07-14T14:59:42.659Z,49.30
2017-07-14T15:02:11.061Z,46.60
2017-07-14T15:04:39.410Z,42.10
2017-07-14T15:07:07.677Z,39.40
2017-07-14T15:09:35.939Z,38.20
2017-07-14T15:12:04.197Z,35.10
2017-07-14T15:14:32.497Z,36.00
2017-07-14T15:17:00.752Z,36.10
2017-07-14T15:19:29.062Z,38.50
2017-07-14T15:21:57.313Z,41.00
2017-07-14T15:24:25.583Z,41.50
2017-07-14T15:26:53.883Z,39.80
2017-07-14T15:29:22.171Z,41.60
2017-07-14T15:31:50.458Z,42.30
2017-07-14T15:34:18.720Z,39.50
2017-07-14T15:36:47.091Z,38.90
2017-07-14T15:39:15.358Z,36.90
2017-07-14T15:41:43.657Z,38.10
2017-07-14T15:44:12.048Z,40.20
2017-07-14T15:46:40.305Z,38.20
2017-07-14T15:49:08.585Z,38.70
2017-07-14T15:51:36.875Z,40.30
2017-07-14T15:54:05.247Z,39.60
2017-07-14T15:56:33.528Z,39.40
2017-07-14T15:59:01.826Z,38.20
2017-07-14T16:01:30.120Z,37.60
2017-07-14T16:03:59.146Z,34.50
2017-07-14T16:06:27.474Z,34.40
2017-07-14T16:08:55.733Z,34.50
2017-07-14T16:11:24.097Z,36.70
2017-07-14T16:13:52.375Z,36.80
2017-07-14T16:16:20.841Z,36.00
2017-07-14T16:18:49.124Z,32.90
2017-07-14T16:21:17.530Z,34.90
2017-07-14T16:23:45.771Z,35.80
2017-07-14T16:26:14.050Z,35.70
2017-07-14T16:28:42.321Z,37.30
2017-07-14T16:31:10.568Z,38.00
2017-07-14T16:33:39.726Z,40.70
2017-07-14T16:36:08.007Z,40.70
2017-07-14T16:38:36.385Z,41.90
2017-07-14T16:41:04.657Z,40.60
2017-07-14T16:43:33.047Z,39.00
2017-07-14T16:46:01.299Z,39.60
2017-07-14T16:48:29.550Z,39.80
2017-07-14T16:50:57.856Z,39.00
2017-07-14T16:53:26.132Z,38.40
2017-07-14T16:55:54.423Z,34.50
2017-07-14T16:58:22.721Z,34.80
2017-07-14T17:00:51.123Z,34.40
2017-07-14T17:03:20.183Z,34.80
2017-07-14T17:05:48.458Z,34.70
2017-07-14T17:08:16.824Z,34.00
2017-07-14T17:10:45.067Z,33.50
2017-07-14T17:13:13.388Z,34.90
2017-07-14T17:15:41.652Z,34.80
2017-07-14T17:18:10.071Z,33.00
2017-07-14T17:20:39.136Z,33.80
2017-07-14T17:23:07.510Z,33.80
2017-07-14T17:25:35.808Z,33.90
2017-07-14T17:28:04.072Z,32.20
2017-07-14T17:30:32.457Z,33.50
2017-07-14T17:33:00.737Z,33.40
2017-07-14T17:35:29.013Z,37.90
2017-07-14T17:37:57.264Z,39.80
2017-07-14T17:40:25.568Z,41.00
2017-07-14T17:42:53.841Z,39.00
2017-07-14T17:45:22.078Z,38.90
2017-07-14T17:47:50.377Z,42.10
2017-07-14T17:50:18.647Z,43.20
2017-07-14T17:52:47.017Z,41.60
2017-07-14T17:55:15.427Z,43.60
2017-07-14T17:57:43.698Z,43.80
2017-07-14T18:00:11.972Z,41.70
2017-07-14T18:02:40.368Z,40.30
2017-07-14T18:05:08.643Z,40.00
2017-07-14T18:07:36.893Z,42.10
2017-07-14T18:10:05.163Z,41.30
2017-07-14T18:12:33.472Z,43.70
2017-07-14T18:15:01.845Z,46.20
2017-07-14T18:17:30.107Z,45.50
2017-07-14T18:19:58.605Z,46.30
2017-07-14T18:22:26.874Z,42.80
2017-07-14T18:24:55.164Z,46.70
2017-07-14T18:27:23.422Z,45.30
2017-07-14T18:29:51.757Z,47.30
2017-07-14T18:32:20.048Z,46.30
2017-07-14T18:34:48.383Z,46.50
2017-07-14T18:37:16.796Z,46.20
2017-07-14T18:39:45.053Z,47.20
2017-07-14T18:42:13.295Z,48.20
2017-07-14T18:44:41.629Z,48.40
2017-07-14T18:47:09.909Z,49.30
2017-07-14T18:49:38.164Z,50.70
2017-07-14T18:52:06.424Z,51.90
2017-07-14T18:54:34.840Z,54.60
2017-07-14T18:57:03.126Z,54.20
2017-07-14T18:59:31.392Z,54.00
2017-07-14T19:01:59.659Z,54.60
2017-07-14T19:04:27.934Z,57.50
2017-07-14T19:06:56.222Z,55.70
2017-07-14T19:09:24.507Z,55.80
2017-07-14T19:11:52.784Z,58.50
2017-07-14T19:14:21.260Z,62.20
2017-07-14T19:16:49.535Z,64.10
2017-07-14T19:19:17.927Z,66.10
2017-07-14T19:21:46.294Z,66.80
2017-07-14T19:24:14.555Z,66.70
2017-07-14T19:26:42.846Z,67.50
2017-07-14T19:29:11.212Z,67.70
2017-07-14T19:31:39.493Z,67.80
2017-07-14T19:34:07.739Z,69.60
2017-07-14T19:36:36.159Z,71.30
2017-07-14T19:39:04.421Z,70.90
2017-07-14T19:41:32.743Z,73.10
2017-07-14T19:44:01.768Z,66.70
2017-07-14T19:46:30.084Z,66.70
2017-07-14T19:48:58.339Z,65.60
2017-07-14T19:51:26.635Z,65.60
2017-07-14T19:53:54.938Z,65.10
2017-07-14T19:56:23.964Z,67.30
2017-07-14T19:58:52.250Z,68.00
2017-07-14T20:01:20.569Z,67.90
2017-07-14T20:03:48.928Z,67.40
2017-07-14T20:06:17.219Z,68.70
2017-07-14T20:08:45.484Z,68.30
2017-07-14T20:11:13.757Z,68.90
2017-07-14T20:13:42.192Z,74.20
2017-07-14T20:16:11.251Z,78.30
2017-07-14T20:18:39.549Z,78.30
2017-07-14T20:21:07.906Z,78.50
2017-07-14T20:23:36.305Z,79.40
2017-07-14T20:26:04.674Z,78.00
2017-07-14T20:28:32.929Z,77.10
2017-07-14T20:31:01.210Z,78.10
2017-07-14T20:33:29.493Z,77.10
2017-07-14T20:35:57.806Z,77.20
2017-07-14T20:38:26.073Z,78.40
2017-07-14T20:40:54.337Z,76.00
2017-07-14T20:43:22.705Z,78.60
2017-07-14T20:45:50.947Z,78.90
2017-07-14T20:48:19.290Z,80.00
2017-07-14T20:50:48.360Z,81.20
2017-07-14T20:53:16.841Z,81.10
2017-07-14T20:55:45.083Z,81.80
2017-07-14T20:58:13.497Z,81.90
2017-07-14T21:00:41.880Z,81.90
2017-07-14T21:03:10.163Z,88.70
2017-07-14T21:05:38.463Z,89.10
2017-07-14T21:08:07.528Z,87.20
2017-07-14T21:10:35.928Z,87.20
2017-07-14T21:13:04.975Z,88.30
2017-07-14T21:15:33.292Z,88.40
2017-07-14T21:18:01.660Z,88.90
2017-07-14T21:20:29.934Z,88.50
2017-07-14T21:22:58.216Z,88.90
2017-07-14T21:25:26.572Z,89.80
2017-07-14T21:27:54.970Z,90.00
2017-07-14T21:30:23.249Z,90.10
2017-07-14T21:32:51.509Z,89.30
2017-07-14T21:35:19.890Z,90.00
2017-07-14T21:37:48.155Z,90.40
2017-07-14T21:40:16.542Z,88.70
2017-07-14T21:42:44.851Z,86.60
2017-07-14T21:45:13.161Z,86.90
2017-07-14T21:47:41.436Z,86.10
2017-07-14T21:50:09.756Z,88.80
2017-07-14T21:52:38.040Z,90.00
2017-07-14T21:55:06.300Z,88.60
2017-07-14T21:57:35.371Z,90.40
2017-07-14T22:00:03.642Z,90.20
2017-07-14T22:02:31.932Z,91.30
2017-07-14T22:05:00.244Z,90.90
2017-07-14T22:07:28.610Z,89.70
2017-07-14T22:09:56.884Z,90.30
2017-07-14T22:12:25.151Z,90.60
2017-07-14T22:14:53.470Z,90.90
2017-07-14T22:17:22.534Z,90.50
2017-07-14T22:19:50.900Z,90.50
2017-07-14T22:22:19.147Z,90.60
2017-07-14T22:24:47.461Z,91.20
2017-07-14T22:27:15.851Z,91.40
2017-07-14T22:29:44.122Z,90.80
2017-07-14T22:32:12.398Z,90.80
2017-07-14T22:34:40.668Z,90.90
2017-07-14T22:37:09.060Z,91.40
2017-07-14T22:39:37.432Z,92.10
2017-07-14T22:42:05.692Z,92.20
2017-07-14T22:44:34.093Z,91.90
2017-07-14T22:47:02.343Z,92.20
2017-07-14T22:49:30.627Z,92.10
2017-07-14T22:51:58.914Z,92.30
2017-07-14T22:54:27.222Z,92.50
2017-07-14T22:56:55.482Z,92.80
2017-07-14T22:59:23.748Z,93.10
2017-07-14T23:01:52.021Z,93.30
2017-07-14T23:04:20.282Z,94.00
2017-07-14T23:06:48.557Z,94.40
2017-07-14T23:09:16.839Z,94.40
2017-07-14T23:11:45.186Z,94.60
2017-07-14T23:14:13.524Z,94.20
2017-07-14T23:16:41.798Z,94.40
2017-07-14T23:19:10.081Z,94.60
2017-07-14T23:21:38.473Z,95.30
2017-07-14T23:24:06.814Z,95.00
2017-07-14T23:26:35.080Z,95.30
2017-07-14T23:29:03.496Z,96.30
2017-07-14T23:31:31.748Z,96.10
2017-07-14T23:34:00.015Z,96.20
2017-07-14T23:36:28.315Z,96.40
2017-07-14T23:38:56.592Z,97.10
2017-07-14T23:41:24.890Z,97.40
2017-07-14T23:43:53.935Z,97.10
2017-07-14T23:46:22.230Z,97.10
2017-07-14T23:48:50.494Z,96.90
2017-07-14T23:51:18.788Z,96.60
2017-07-14T23:53:47.169Z,96.50
2017-07-14T23:56:15.561Z,97.20
2017-07-14T23:58:43.928Z,96.90
